sensor_id;sensor_type;location;lat;lon;timestamp;P1;durP1;ratioP1;P2;durP2;ratioP2
26742;SDS011;14341;51.256;22.478;2023-01-05T00:02:21;31.52;;;18.42;;
26742;SDS011;14341;51.256;22.478;2023-01-05T00:05:25;28.40;;;19.10;;
26742;SDS011;14341;51.256;22.478;2023-01-05T00:08:28;28.38;;;17.83;;
26742;SDS011;14341;51.256;22.478;2023-01-05T00:11:38;26.40;;;18.98;;
26742;SDS011;14341;51.256;22.478;2023-01-05T00:15:00;27.08;;;18.20;;
26742;SDS011;14341;51.256;22.478;2023-01-05T00:18:20;26.42;;;17.88;;
26742;SDS011;14341;51.256;22.478;2023-01-05T00:25:02;25.58;;;18.80;;
26742;SDS011;14341;51.256;22.478;2023-01-05T00:28:13;28.65;;;19.98;;
26742;SDS011;14341;51.256;22.478;2023-01-05T00:31:18;27.48;;;18.30;;
26742;SDS011;14341;51.256;22.478;2023-01-05T00:34:21;38.55;;;27.73;;
26742;SDS011;14341;51.256;22.478;2023-01-05T00:37:25;31.65;;;20.10;;
26742;SDS011;14341;51.256;22.478;2023-01-05T00:40:32;33.22;;;20.30;;
26742;SDS011;14341;51.256;22.478;2023-01-05T00:43:37;27.60;;;18.23;;
26742;SDS011;14341;51.256;22.478;2023-01-05T00:46:41;24.23;;;17.05;;
26742;SDS011;14341;51.256;22.478;2023-01-05T00:49:45;27.50;;;18.55;;
26742;SDS011;14341;51.256;22.478;2023-01-05T00:52:48;27.60;;;16.90;;
26742;SDS011;14341;51.256;22.478;2023-01-05T00:55:55;33.45;;;24.77;;
26742;SDS011;14341;51.256;22.478;2023-01-05T00:58:59;25.70;;;17.08;;
26742;SDS011;14341;51.256;22.478;2023-01-05T01:02:04;26.15;;;17.50;;
26742;SDS011;14341;51.256;22.478;2023-01-05T01:05:08;24.70;;;16.38;;
26742;SDS011;14341;51.256;22.478;2023-01-05T01:08:11;24.08;;;16.75;;
26742;SDS011;14341;51.256;22.478;2023-01-05T01:11:15;28.52;;;18.25;;
26742;SDS011;14341;51.256;22.478;2023-01-05T01:14:19;37.83;;;24.17;;
26742;SDS011;14341;51.256;22.478;2023-01-05T01:17:24;25.00;;;15.52;;
26742;SDS011;14341;51.256;22.478;2023-01-05T01:20:28;28.83;;;16.40;;
26742;SDS011;14341;51.256;22.478;2023-01-05T01:23:31;26.85;;;17.33;;
26742;SDS011;14341;51.256;22.478;2023-01-05T01:26:35;24.35;;;15.57;;
26742;SDS011;14341;51.256;22.478;2023-01-05T01:29:38;24.35;;;15.60;;
26742;SDS011;14341;51.256;22.478;2023-01-05T01:32:43;22.25;;;14.98;;
26742;SDS011;14341;51.256;22.478;2023-01-05T01:35:47;22.70;;;14.85;;
26742;SDS011;14341;51.256;22.478;2023-01-05T01:38:53;23.52;;;15.60;;
26742;SDS011;14341;51.256;22.478;2023-01-05T01:41:56;24.95;;;16.25;;
26742;SDS011;14341;51.256;22.478;2023-01-05T01:45:00;21.33;;;14.48;;
26742;SDS011;14341;51.256;22.478;2023-01-05T01:48:21;22.02;;;15.65;;
26742;SDS011;14341;51.256;22.478;2023-01-05T01:51:26;26.17;;;14.98;;
26742;SDS011;14341;51.256;22.478;2023-01-05T01:54:33;22.40;;;14.25;;
26742;SDS011;14341;51.256;22.478;2023-01-05T01:57:38;20.55;;;14.68;;
26742;SDS011;14341;51.256;22.478;2023-01-05T02:00:43;22.70;;;13.45;;
26742;SDS011;14341;51.256;22.478;2023-01-05T02:03:49;19.38;;;13.77;;
26742;SDS011;14341;51.256;22.478;2023-01-05T02:06:53;18.73;;;13.35;;
26742;SDS011;14341;51.256;22.478;2023-01-05T02:09:57;16.90;;;12.63;;
26742;SDS011;14341;51.256;22.478;2023-01-05T02:13:03;26.63;;;18.63;;
26742;SDS011;14341;51.256;22.478;2023-01-05T02:16:18;21.30;;;14.70;;
26742;SDS011;14341;51.256;22.478;2023-01-05T02:19:54;17.77;;;12.60;;
26742;SDS011;14341;51.256;22.478;2023-01-05T02:23:31;16.77;;;12.02;;
26742;SDS011;14341;51.256;22.478;2023-01-05T02:30:48;18.88;;;12.68;;
26742;SDS011;14341;51.256;22.478;2023-01-05T02:34:11;17.92;;;11.45;;
26742;SDS011;14341;51.256;22.478;2023-01-05T02:37:23;15.50;;;12.02;;
26742;SDS011;14341;51.256;22.478;2023-01-05T02:40:33;18.90;;;12.48;;
26742;SDS011;14341;51.256;22.478;2023-01-05T02:43:42;19.45;;;13.77;;
26742;SDS011;14341;51.256;22.478;2023-01-05T02:46:57;21.30;;;13.35;;
26742;SDS011;14341;51.256;22.478;2023-01-05T02:50:03;19.65;;;12.45;;
26742;SDS011;14341;51.256;22.478;2023-01-05T02:53:13;18.17;;;12.18;;
26742;SDS011;14341;51.256;22.478;2023-01-05T02:56:22;16.53;;;12.70;;
26742;SDS011;14341;51.256;22.478;2023-01-05T02:59:30;20.10;;;13.57;;
26742;SDS011;14341;51.256;22.478;2023-01-05T03:02:40;21.17;;;13.63;;
26742;SDS011;14341;51.256;22.478;2023-01-05T03:05:52;23.17;;;14.10;;
26742;SDS011;14341;51.256;22.478;2023-01-05T03:08:58;19.00;;;13.60;;
26742;SDS011;14341;51.256;22.478;2023-01-05T03:12:05;18.88;;;13.57;;
26742;SDS011;14341;51.256;22.478;2023-01-05T03:15:32;21.75;;;14.93;;
26742;SDS011;14341;51.256;22.478;2023-01-05T03:18:40;20.40;;;16.00;;
26742;SDS011;14341;51.256;22.478;2023-01-05T03:21:58;19.23;;;13.70;;
26742;SDS011;14341;51.256;22.478;2023-01-05T03:25:22;20.73;;;14.52;;
26742;SDS011;14341;51.256;22.478;2023-01-05T03:28:47;21.90;;;15.43;;
26742;SDS011;14341;51.256;22.478;2023-01-05T03:32:15;22.75;;;15.38;;
26742;SDS011;14341;51.256;22.478;2023-01-05T03:35:43;25.50;;;19.85;;
26742;SDS011;14341;51.256;22.478;2023-01-05T03:38:51;19.33;;;14.00;;
26742;SDS011;14341;51.256;22.478;2023-01-05T03:41:57;19.75;;;14.35;;
26742;SDS011;14341;51.256;22.478;2023-01-05T03:45:02;22.73;;;15.15;;
26742;SDS011;14341;51.256;22.478;2023-01-05T03:48:07;21.67;;;14.98;;
26742;SDS011;14341;51.256;22.478;2023-01-05T03:51:13;20.23;;;14.30;;
26742;SDS011;14341;51.256;22.478;2023-01-05T03:54:20;20.05;;;12.90;;
26742;SDS011;14341;51.256;22.478;2023-01-05T03:57:23;19.35;;;13.48;;
26742;SDS011;14341;51.256;22.478;2023-01-05T04:00:29;19.08;;;13.18;;
26742;SDS011;14341;51.256;22.478;2023-01-05T04:06:47;14.93;;;11.57;;
26742;SDS011;14341;51.256;22.478;2023-01-05T04:09:51;15.40;;;11.45;;
26742;SDS011;14341;51.256;22.478;2023-01-05T04:12:55;19.50;;;11.93;;
26742;SDS011;14341;51.256;22.478;2023-01-05T04:15:59;17.80;;;13.20;;
26742;SDS011;14341;51.256;22.478;2023-01-05T04:19:03;17.83;;;11.10;;
26742;SDS011;14341;51.256;22.478;2023-01-05T04:22:09;14.48;;;10.38;;
26742;SDS011;14341;51.256;22.478;2023-01-05T04:25:14;16.50;;;10.00;;
26742;SDS011;14341;51.256;22.478;2023-01-05T04:28:18;32.30;;;18.75;;
26742;SDS011;14341;51.256;22.478;2023-01-05T04:31:22;22.02;;;15.27;;
26742;SDS011;14341;51.256;22.478;2023-01-05T04:34:30;17.27;;;15.50;;
26742;SDS011;14341;51.256;22.478;2023-01-05T04:37:44;20.92;;;18.10;;
26742;SDS011;14341;51.256;22.478;2023-01-05T04:40:50;11.55;;;8.43;;
26742;SDS011;14341;51.256;22.478;2023-01-05T04:43:59;7.68;;;5.93;;
26742;SDS011;14341;51.256;22.478;2023-01-05T04:47:06;10.55;;;6.35;;
26742;SDS011;14341;51.256;22.478;2023-01-05T04:50:14;10.27;;;6.03;;
26742;SDS011;14341;51.256;22.478;2023-01-05T04:53:26;6.78;;;4.82;;
26742;SDS011;14341;51.256;22.478;2023-01-05T04:56:31;8.98;;;5.75;;
26742;SDS011;14341;51.256;22.478;2023-01-05T05:00:04;9.73;;;5.90;;
26742;SDS011;14341;51.256;22.478;2023-01-05T05:03:10;7.55;;;4.82;;
26742;SDS011;14341;51.256;22.478;2023-01-05T05:06:14;8.70;;;7.00;;
26742;SDS011;14341;51.256;22.478;2023-01-05T05:09:21;6.63;;;5.45;;
26742;SDS011;14341;51.256;22.478;2023-01-05T05:12:27;7.65;;;5.68;;
26742;SDS011;14341;51.256;22.478;2023-01-05T05:15:32;6.90;;;5.57;;
26742;SDS011;14341;51.256;22.478;2023-01-05T05:18:39;8.75;;;5.45;;
26742;SDS011;14341;51.256;22.478;2023-01-05T05:21:48;8.02;;;6.28;;
26742;SDS011;14341;51.256;22.478;2023-01-05T05:24:56;7.65;;;6.28;;
26742;SDS011;14341;51.256;22.478;2023-01-05T05:28:00;9.85;;;7.85;;
26742;SDS011;14341;51.256;22.478;2023-01-05T05:31:04;9.45;;;7.50;;
26742;SDS011;14341;51.256;22.478;2023-01-05T05:34:08;11.75;;;7.55;;
26742;SDS011;14341;51.256;22.478;2023-01-05T05:37:11;7.60;;;6.45;;
26742;SDS011;14341;51.256;22.478;2023-01-05T05:40:16;8.60;;;6.40;;
26742;SDS011;14341;51.256;22.478;2023-01-05T05:43:20;10.15;;;6.53;;
26742;SDS011;14341;51.256;22.478;2023-01-05T05:46:24;9.13;;;6.18;;
26742;SDS011;14341;51.256;22.478;2023-01-05T05:49:28;9.70;;;6.85;;
26742;SDS011;14341;51.256;22.478;2023-01-05T05:55:36;9.07;;;7.55;;
26742;SDS011;14341;51.256;22.478;2023-01-05T05:58:39;10.57;;;7.82;;
26742;SDS011;14341;51.256;22.478;2023-01-05T06:01:43;12.02;;;8.00;;
26742;SDS011;14341;51.256;22.478;2023-01-05T06:04:46;11.07;;;7.25;;
26742;SDS011;14341;51.256;22.478;2023-01-05T06:07:49;7.85;;;6.07;;
26742;SDS011;14341;51.256;22.478;2023-01-05T06:10:54;7.22;;;5.63;;
26742;SDS011;14341;51.256;22.478;2023-01-05T06:13:58;7.55;;;5.72;;
26742;SDS011;14341;51.256;22.478;2023-01-05T06:17:03;5.65;;;5.05;;
26742;SDS011;14341;51.256;22.478;2023-01-05T06:20:07;7.00;;;5.45;;
26742;SDS011;14341;51.256;22.478;2023-01-05T06:23:11;5.80;;;4.80;;
26742;SDS011;14341;51.256;22.478;2023-01-05T06:26:15;7.57;;;5.25;;
26742;SDS011;14341;51.256;22.478;2023-01-05T06:29:19;10.88;;;6.90;;
26742;SDS011;14341;51.256;22.478;2023-01-05T06:32:22;6.05;;;5.03;;
26742;SDS011;14341;51.256;22.478;2023-01-05T06:35:26;5.97;;;4.38;;
26742;SDS011;14341;51.256;22.478;2023-01-05T06:38:29;8.00;;;4.18;;
26742;SDS011;14341;51.256;22.478;2023-01-05T06:41:34;5.63;;;3.83;;
26742;SDS011;14341;51.256;22.478;2023-01-05T06:44:37;5.72;;;5.20;;
26742;SDS011;14341;51.256;22.478;2023-01-05T06:47:41;5.35;;;4.30;;
26742;SDS011;14341;51.256;22.478;2023-01-05T06:50:44;6.05;;;4.47;;
26742;SDS011;14341;51.256;22.478;2023-01-05T06:53:48;4.82;;;4.32;;
26742;SDS011;14341;51.256;22.478;2023-01-05T06:56:52;19.38;;;12.80;;
26742;SDS011;14341;51.256;22.478;2023-01-05T06:59:56;9.65;;;6.65;;
26742;SDS011;14341;51.256;22.478;2023-01-05T07:02:59;7.57;;;4.20;;
26742;SDS011;14341;51.256;22.478;2023-01-05T07:06:02;5.82;;;4.32;;
26742;SDS011;14341;51.256;22.478;2023-01-05T07:09:13;6.53;;;3.63;;
26742;SDS011;14341;51.256;22.478;2023-01-05T07:12:17;4.75;;;3.90;;
26742;SDS011;14341;51.256;22.478;2023-01-05T07:15:21;6.55;;;5.40;;
26742;SDS011;14341;51.256;22.478;2023-01-05T07:18:24;6.30;;;3.70;;
26742;SDS011;14341;51.256;22.478;2023-01-05T07:21:27;6.22;;;4.20;;
26742;SDS011;14341;51.256;22.478;2023-01-05T07:24:31;4.47;;;3.70;;
26742;SDS011;14341;51.256;22.478;2023-01-05T07:27:35;5.13;;;3.55;;
26742;SDS011;14341;51.256;22.478;2023-01-05T07:30:39;10.88;;;8.88;;
26742;SDS011;14341;51.256;22.478;2023-01-05T07:33:42;27.98;;;16.80;;
26742;SDS011;14341;51.256;22.478;2023-01-05T07:36:45;6.70;;;3.58;;
26742;SDS011;14341;51.256;22.478;2023-01-05T07:39:49;6.18;;;3.63;;
26742;SDS011;14341;51.256;22.478;2023-01-05T07:42:54;5.93;;;3.83;;
26742;SDS011;14341;51.256;22.478;2023-01-05T07:45:57;6.00;;;4.35;;
26742;SDS011;14341;51.256;22.478;2023-01-05T07:49:01;6.22;;;3.97;;
26742;SDS011;14341;51.256;22.478;2023-01-05T07:52:04;28.67;;;13.43;;
26742;SDS011;14341;51.256;22.478;2023-01-05T07:55:08;6.00;;;4.18;;
26742;SDS011;14341;51.256;22.478;2023-01-05T07:58:13;4.60;;;3.60;;
26742;SDS011;14341;51.256;22.478;2023-01-05T08:01:16;8.15;;;7.28;;
26742;SDS011;14341;51.256;22.478;2023-01-05T08:04:19;6.25;;;4.28;;
26742;SDS011;14341;51.256;22.478;2023-01-05T08:07:23;9.15;;;4.20;;
26742;SDS011;14341;51.256;22.478;2023-01-05T08:10:26;7.85;;;4.78;;
26742;SDS011;14341;51.256;22.478;2023-01-05T08:13:33;6.82;;;4.50;;
26742;SDS011;14341;51.256;22.478;2023-01-05T08:16:55;7.75;;;4.80;;
26742;SDS011;14341;51.256;22.478;2023-01-05T08:19:58;8.63;;;4.65;;
26742;SDS011;14341;51.256;22.478;2023-01-05T08:23:02;6.53;;;4.60;;
26742;SDS011;14341;51.256;22.478;2023-01-05T08:26:05;8.48;;;4.80;;
26742;SDS011;14341;51.256;22.478;2023-01-05T08:29:11;7.07;;;5.47;;
26742;SDS011;14341;51.256;22.478;2023-01-05T08:32:15;13.52;;;7.15;;
26742;SDS011;14341;51.256;22.478;2023-01-05T08:35:18;8.32;;;4.95;;
26742;SDS011;14341;51.256;22.478;2023-01-05T08:38:22;10.57;;;5.50;;
26742;SDS011;14341;51.256;22.478;2023-01-05T08:41:26;6.43;;;5.32;;
26742;SDS011;14341;51.256;22.478;2023-01-05T08:44:33;10.80;;;6.03;;
26742;SDS011;14341;51.256;22.478;2023-01-05T08:47:37;9.02;;;5.05;;
26742;SDS011;14341;51.256;22.478;2023-01-05T08:50:40;10.43;;;5.50;;
26742;SDS011;14341;51.256;22.478;2023-01-05T08:53:44;10.80;;;5.15;;
26742;SDS011;14341;51.256;22.478;2023-01-05T08:56:47;10.30;;;5.00;;
26742;SDS011;14341;51.256;22.478;2023-01-05T08:59:52;8.43;;;4.97;;
26742;SDS011;14341;51.256;22.478;2023-01-05T09:02:56;8.23;;;4.40;;
26742;SDS011;14341;51.256;22.478;2023-01-05T09:05:59;6.95;;;4.50;;
26742;SDS011;14341;51.256;22.478;2023-01-05T09:09:04;8.13;;;4.60;;
26742;SDS011;14341;51.256;22.478;2023-01-05T09:12:07;9.18;;;4.35;;
26742;SDS011;14341;51.256;22.478;2023-01-05T09:15:12;7.75;;;4.30;;
26742;SDS011;14341;51.256;22.478;2023-01-05T09:18:16;6.20;;;4.03;;
26742;SDS011;14341;51.256;22.478;2023-01-05T09:21:19;9.35;;;6.88;;
26742;SDS011;14341;51.256;22.478;2023-01-05T09:24:23;10.10;;;5.53;;
26742;SDS011;14341;51.256;22.478;2023-01-05T09:27:26;9.88;;;4.93;;
26742;SDS011;14341;51.256;22.478;2023-01-05T09:30:31;7.50;;;5.13;;
26742;SDS011;14341;51.256;22.478;2023-01-05T09:33:45;12.27;;;6.30;;
26742;SDS011;14341;51.256;22.478;2023-01-05T09:36:48;9.25;;;5.93;;
26742;SDS011;14341;51.256;22.478;2023-01-05T09:39:52;11.15;;;6.50;;
26742;SDS011;14341;51.256;22.478;2023-01-05T09:42:55;12.13;;;7.50;;
26742;SDS011;14341;51.256;22.478;2023-01-05T09:46:00;32.67;;;22.80;;
26742;SDS011;14341;51.256;22.478;2023-01-05T09:49:06;23.63;;;15.18;;
26742;SDS011;14341;51.256;22.478;2023-01-05T09:52:16;17.90;;;10.38;;
26742;SDS011;14341;51.256;22.478;2023-01-05T09:55:23;13.23;;;7.68;;
26742;SDS011;14341;51.256;22.478;2023-01-05T09:58:32;29.08;;;19.70;;
26742;SDS011;14341;51.256;22.478;2023-01-05T10:01:43;13.93;;;7.00;;
26742;SDS011;14341;51.256;22.478;2023-01-05T10:04:49;10.23;;;6.38;;
26742;SDS011;14341;51.256;22.478;2023-01-05T10:07:56;11.50;;;7.32;;
26742;SDS011;14341;51.256;22.478;2023-01-05T10:11:05;11.98;;;7.05;;
26742;SDS011;14341;51.256;22.478;2023-01-05T10:14:32;17.90;;;11.23;;
26742;SDS011;14341;51.256;22.478;2023-01-05T10:17:43;11.35;;;6.63;;
26742;SDS011;14341;51.256;22.478;2023-01-05T10:24:16;12.85;;;9.02;;
26742;SDS011;14341;51.256;22.478;2023-01-05T10:27:31;21.80;;;15.77;;
26742;SDS011;14341;51.256;22.478;2023-01-05T10:30:44;15.35;;;7.88;;
26742;SDS011;14341;51.256;22.478;2023-01-05T10:33:55;12.50;;;7.40;;
26742;SDS011;14341;51.256;22.478;2023-01-05T10:37:21;11.15;;;7.95;;
26742;SDS011;14341;51.256;22.478;2023-01-05T10:40:40;12.02;;;7.25;;
26742;SDS011;14341;51.256;22.478;2023-01-05T10:43:56;11.48;;;6.38;;
26742;SDS011;14341;51.256;22.478;2023-01-05T10:47:10;11.30;;;5.88;;
26742;SDS011;14341;51.256;22.478;2023-01-05T10:53:39;8.30;;;6.15;;
26742;SDS011;14341;51.256;22.478;2023-01-05T10:56:45;15.18;;;7.40;;
26742;SDS011;14341;51.256;22.478;2023-01-05T10:59:55;12.40;;;6.88;;
26742;SDS011;14341;51.256;22.478;2023-01-05T11:03:00;18.67;;;8.52;;
26742;SDS011;14341;51.256;22.478;2023-01-05T11:06:06;13.75;;;5.60;;
26742;SDS011;14341;51.256;22.478;2023-01-05T11:12:41;13.27;;;5.93;;
26742;SDS011;14341;51.256;22.478;2023-01-05T11:15:55;18.83;;;6.65;;
26742;SDS011;14341;51.256;22.478;2023-01-05T11:19:02;9.55;;;5.97;;
26742;SDS011;14341;51.256;22.478;2023-01-05T11:22:16;8.63;;;6.13;;
26742;SDS011;14341;51.256;22.478;2023-01-05T11:25:30;11.13;;;6.35;;
26742;SDS011;14341;51.256;22.478;2023-01-05T11:28:34;12.95;;;6.15;;
26742;SDS011;14341;51.256;22.478;2023-01-05T11:31:38;14.73;;;6.85;;
26742;SDS011;14341;51.256;22.478;2023-01-05T11:34:46;12.07;;;6.85;;
26742;SDS011;14341;51.256;22.478;2023-01-05T11:37:53;12.18;;;8.07;;
26742;SDS011;14341;51.256;22.478;2023-01-05T11:40:58;13.52;;;7.32;;
26742;SDS011;14341;51.256;22.478;2023-01-05T11:44:02;17.52;;;8.13;;
26742;SDS011;14341;51.256;22.478;2023-01-05T11:47:09;19.20;;;7.88;;
26742;SDS011;14341;51.256;22.478;2023-01-05T11:50:21;13.82;;;6.65;;
26742;SDS011;14341;51.256;22.478;2023-01-05T11:53:36;14.15;;;7.20;;
26742;SDS011;14341;51.256;22.478;2023-01-05T11:56:40;14.38;;;7.22;;
26742;SDS011;14341;51.256;22.478;2023-01-05T11:59:44;16.55;;;7.03;;
26742;SDS011;14341;51.256;22.478;2023-01-05T12:02:52;18.98;;;8.40;;
26742;SDS011;14341;51.256;22.478;2023-01-05T12:06:21;14.13;;;6.57;;
26742;SDS011;14341;51.256;22.478;2023-01-05T12:09:35;12.52;;;5.65;;
26742;SDS011;14341;51.256;22.478;2023-01-05T12:12:43;9.93;;;6.55;;
26742;SDS011;14341;51.256;22.478;2023-01-05T12:16:01;9.20;;;4.43;;
26742;SDS011;14341;51.256;22.478;2023-01-05T12:19:17;11.65;;;5.03;;
26742;SDS011;14341;51.256;22.478;2023-01-05T12:22:53;12.63;;;5.47;;
26742;SDS011;14341;51.256;22.478;2023-01-05T12:26:12;11.25;;;5.30;;
26742;SDS011;14341;51.256;22.478;2023-01-05T12:29:32;12.55;;;5.07;;
26742;SDS011;14341;51.256;22.478;2023-01-05T12:33:16;9.18;;;4.03;;
26742;SDS011;14341;51.256;22.478;2023-01-05T12:36:57;15.63;;;5.22;;
26742;SDS011;14341;51.256;22.478;2023-01-05T12:40:35;8.98;;;5.28;;
26742;SDS011;14341;51.256;22.478;2023-01-05T12:43:56;14.25;;;6.18;;
26742;SDS011;14341;51.256;22.478;2023-01-05T12:47:24;11.40;;;5.55;;
26742;SDS011;14341;51.256;22.478;2023-01-05T12:50:45;11.98;;;5.32;;
26742;SDS011;14341;51.256;22.478;2023-01-05T12:53:55;9.50;;;4.55;;
26742;SDS011;14341;51.256;22.478;2023-01-05T12:57:03;10.10;;;5.22;;
26742;SDS011;14341;51.256;22.478;2023-01-05T13:00:13;10.27;;;4.50;;
26742;SDS011;14341;51.256;22.478;2023-01-05T13:03:20;11.05;;;4.70;;
26742;SDS011;14341;51.256;22.478;2023-01-05T13:06:27;9.98;;;4.85;;
26742;SDS011;14341;51.256;22.478;2023-01-05T13:09:37;10.73;;;5.65;;
26742;SDS011;14341;51.256;22.478;2023-01-05T13:12:41;20.02;;;9.35;;
26742;SDS011;14341;51.256;22.478;2023-01-05T13:15:48;10.82;;;5.40;;
26742;SDS011;14341;51.256;22.478;2023-01-05T13:18:59;12.85;;;5.40;;
26742;SDS011;14341;51.256;22.478;2023-01-05T13:22:09;12.00;;;5.82;;
26742;SDS011;14341;51.256;22.478;2023-01-05T13:25:16;13.30;;;6.45;;
26742;SDS011;14341;51.256;22.478;2023-01-05T13:28:21;14.63;;;6.43;;
26742;SDS011;14341;51.256;22.478;2023-01-05T13:34:53;9.82;;;6.68;;
26742;SDS011;14341;51.256;22.478;2023-01-05T13:41:36;8.98;;;5.00;;
26742;SDS011;14341;51.256;22.478;2023-01-05T13:45:13;10.98;;;5.10;;
26742;SDS011;14341;51.256;22.478;2023-01-05T13:52:15;12.70;;;5.28;;
26742;SDS011;14341;51.256;22.478;2023-01-05T13:55:27;15.65;;;6.82;;
26742;SDS011;14341;51.256;22.478;2023-01-05T13:58:38;16.60;;;14.23;;
26742;SDS011;14341;51.256;22.478;2023-01-05T14:01:44;10.70;;;5.35;;
26742;SDS011;14341;51.256;22.478;2023-01-05T14:04:49;30.55;;;14.38;;
26742;SDS011;14341;51.256;22.478;2023-01-05T14:07:54;11.10;;;5.00;;
26742;SDS011;14341;51.256;22.478;2023-01-05T14:11:06;10.63;;;4.80;;
26742;SDS011;14341;51.256;22.478;2023-01-05T14:14:24;9.57;;;5.28;;
26742;SDS011;14341;51.256;22.478;2023-01-05T14:20:54;9.35;;;5.05;;
26742;SDS011;14341;51.256;22.478;2023-01-05T14:23:59;9.50;;;5.10;;
26742;SDS011;14341;51.256;22.478;2023-01-05T14:27:04;27.40;;;10.73;;
26742;SDS011;14341;51.256;22.478;2023-01-05T14:33:30;19.48;;;9.77;;
26742;SDS011;14341;51.256;22.478;2023-01-05T14:36:35;19.42;;;10.00;;
26742;SDS011;14341;51.256;22.478;2023-01-05T14:39:42;22.98;;;11.50;;
26742;SDS011;14341;51.256;22.478;2023-01-05T14:42:47;18.63;;;10.23;;
26742;SDS011;14341;51.256;22.478;2023-01-05T14:45:56;14.20;;;9.27;;
26742;SDS011;14341;51.256;22.478;2023-01-05T14:49:06;18.25;;;9.30;;
26742;SDS011;14341;51.256;22.478;2023-01-05T14:52:19;13.82;;;8.68;;
26742;SDS011;14341;51.256;22.478;2023-01-05T14:59:23;18.60;;;9.60;;
26742;SDS011;14341;51.256;22.478;2023-01-05T15:02:28;16.52;;;7.63;;
26742;SDS011;14341;51.256;22.478;2023-01-05T15:05:37;18.02;;;9.63;;
26742;SDS011;14341;51.256;22.478;2023-01-05T15:12:24;12.02;;;6.70;;
26742;SDS011;14341;51.256;22.478;2023-01-05T15:15:44;32.80;;;16.98;;
26742;SDS011;14341;51.256;22.478;2023-01-05T15:19:00;15.95;;;8.18;;
26742;SDS011;14341;51.256;22.478;2023-01-05T15:22:29;19.10;;;7.30;;
26742;SDS011;14341;51.256;22.478;2023-01-05T15:26:03;14.82;;;7.25;;
26742;SDS011;14341;51.256;22.478;2023-01-05T15:29:41;15.20;;;8.55;;
26742;SDS011;14341;51.256;22.478;2023-01-05T15:33:03;21.63;;;9.10;;
26742;SDS011;14341;51.256;22.478;2023-01-05T15:36:16;20.52;;;9.27;;
26742;SDS011;14341;51.256;22.478;2023-01-05T15:39:29;25.38;;;10.00;;
26742;SDS011;14341;51.256;22.478;2023-01-05T15:42:35;22.98;;;10.27;;
26742;SDS011;14341;51.256;22.478;2023-01-05T15:45:41;18.50;;;8.73;;
26742;SDS011;14341;51.256;22.478;2023-01-05T15:48:52;23.45;;;9.98;;
26742;SDS011;14341;51.256;22.478;2023-01-05T15:51:56;33.13;;;13.77;;
26742;SDS011;14341;51.256;22.478;2023-01-05T15:55:00;27.88;;;12.55;;
26742;SDS011;14341;51.256;22.478;2023-01-05T15:58:12;26.52;;;12.55;;
26742;SDS011;14341;51.256;22.478;2023-01-05T16:01:18;20.70;;;11.85;;
26742;SDS011;14341;51.256;22.478;2023-01-05T16:04:22;24.00;;;12.40;;
26742;SDS011;14341;51.256;22.478;2023-01-05T16:07:25;25.30;;;13.30;;
26742;SDS011;14341;51.256;22.478;2023-01-05T16:10:30;26.50;;;14.98;;
26742;SDS011;14341;51.256;22.478;2023-01-05T16:13:43;25.58;;;13.32;;
26742;SDS011;14341;51.256;22.478;2023-01-05T16:16:56;30.63;;;16.23;;
26742;SDS011;14341;51.256;22.478;2023-01-05T16:20:05;22.27;;;14.05;;
26742;SDS011;14341;51.256;22.478;2023-01-05T16:23:17;31.55;;;19.88;;
26742;SDS011;14341;51.256;22.478;2023-01-05T16:26:24;22.00;;;12.75;;
26742;SDS011;14341;51.256;22.478;2023-01-05T16:29:31;16.17;;;10.05;;
26742;SDS011;14341;51.256;22.478;2023-01-05T16:32:40;27.13;;;10.10;;
26742;SDS011;14341;51.256;22.478;2023-01-05T16:35:48;23.85;;;15.38;;
26742;SDS011;14341;51.256;22.478;2023-01-05T16:38:58;21.02;;;12.27;;
26742;SDS011;14341;51.256;22.478;2023-01-05T16:42:15;18.73;;;10.70;;
26742;SDS011;14341;51.256;22.478;2023-01-05T16:45:38;41.72;;;34.55;;
26742;SDS011;14341;51.256;22.478;2023-01-05T16:48:44;27.80;;;15.60;;
26742;SDS011;14341;51.256;22.478;2023-01-05T16:51:50;25.80;;;13.75;;
26742;SDS011;14341;51.256;22.478;2023-01-05T16:58:35;24.98;;;12.65;;
26742;SDS011;14341;51.256;22.478;2023-01-05T17:01:39;23.25;;;13.35;;
26742;SDS011;14341;51.256;22.478;2023-01-05T17:04:47;16.70;;;11.88;;
26742;SDS011;14341;51.256;22.478;2023-01-05T17:07:53;18.48;;;10.88;;
26742;SDS011;14341;51.256;22.478;2023-01-05T17:11:01;19.40;;;11.52;;
26742;SDS011;14341;51.256;22.478;2023-01-05T17:14:08;16.25;;;10.20;;
26742;SDS011;14341;51.256;22.478;2023-01-05T17:17:13;19.65;;;11.65;;
26742;SDS011;14341;51.256;22.478;2023-01-05T17:20:17;16.05;;;10.38;;
26742;SDS011;14341;51.256;22.478;2023-01-05T17:23:21;15.18;;;11.70;;
26742;SDS011;14341;51.256;22.478;2023-01-05T17:26:28;21.23;;;11.77;;
26742;SDS011;14341;51.256;22.478;2023-01-05T17:29:34;15.20;;;11.10;;
26742;SDS011;14341;51.256;22.478;2023-01-05T17:32:38;20.90;;;11.65;;
26742;SDS011;14341;51.256;22.478;2023-01-05T17:35:43;19.63;;;10.15;;
26742;SDS011;14341;51.256;22.478;2023-01-05T17:38:49;16.02;;;10.00;;
26742;SDS011;14341;51.256;22.478;2023-01-05T17:41:52;21.38;;;11.85;;
26742;SDS011;14341;51.256;22.478;2023-01-05T17:45:18;23.63;;;10.77;;
26742;SDS011;14341;51.256;22.478;2023-01-05T17:48:23;14.65;;;8.50;;
26742;SDS011;14341;51.256;22.478;2023-01-05T17:51:28;16.30;;;14.27;;
26742;SDS011;14341;51.256;22.478;2023-01-05T17:54:32;20.92;;;18.38;;
26742;SDS011;14341;51.256;22.478;2023-01-05T17:57:36;13.77;;;11.75;;
26742;SDS011;14341;51.256;22.478;2023-01-05T18:00:40;15.20;;;10.60;;
26742;SDS011;14341;51.256;22.478;2023-01-05T18:03:52;23.40;;;15.73;;
26742;SDS011;14341;51.256;22.478;2023-01-05T18:06:57;13.82;;;9.77;;
26742;SDS011;14341;51.256;22.478;2023-01-05T18:10:02;18.95;;;13.15;;
26742;SDS011;14341;51.256;22.478;2023-01-05T18:13:06;14.20;;;10.18;;
26742;SDS011;14341;51.256;22.478;2023-01-05T18:16:11;15.40;;;10.13;;
26742;SDS011;14341;51.256;22.478;2023-01-05T18:19:14;13.48;;;9.90;;
26742;SDS011;14341;51.256;22.478;2023-01-05T18:22:19;19.70;;;10.00;;
26742;SDS011;14341;51.256;22.478;2023-01-05T18:25:23;17.05;;;11.05;;
26742;SDS011;14341;51.256;22.478;2023-01-05T18:28:27;26.70;;;14.07;;
26742;SDS011;14341;51.256;22.478;2023-01-05T18:31:31;12.52;;;8.30;;
26742;SDS011;14341;51.256;22.478;2023-01-05T18:34:40;12.13;;;7.45;;
26742;SDS011;14341;51.256;22.478;2023-01-05T18:37:45;11.73;;;7.78;;
26742;SDS011;14341;51.256;22.478;2023-01-05T18:40:48;11.32;;;7.35;;
26742;SDS011;14341;51.256;22.478;2023-01-05T18:43:52;12.15;;;7.70;;
26742;SDS011;14341;51.256;22.478;2023-01-05T18:46:55;19.90;;;11.27;;
26742;SDS011;14341;51.256;22.478;2023-01-05T18:49:59;15.27;;;8.13;;
26742;SDS011;14341;51.256;22.478;2023-01-05T18:53:07;12.38;;;7.88;;
26742;SDS011;14341;51.256;22.478;2023-01-05T18:56:12;16.05;;;10.25;;
26742;SDS011;14341;51.256;22.478;2023-01-05T18:59:16;15.30;;;11.07;;
26742;SDS011;14341;51.256;22.478;2023-01-05T19:02:20;19.05;;;14.57;;
26742;SDS011;14341;51.256;22.478;2023-01-05T19:05:24;22.35;;;16.17;;
26742;SDS011;14341;51.256;22.478;2023-01-05T19:08:29;20.10;;;16.90;;
26742;SDS011;14341;51.256;22.478;2023-01-05T19:11:32;18.38;;;13.07;;